createdAt,value
2019-02-15T00:00:38.191Z,0.89
2019-02-15T00:03:07.291Z,0.93
2019-02-15T00:05:35.928Z,0.92
2019-02-15T00:08:04.878Z,0.80
2019-02-15T00:10:33.495Z,0.75
2019-02-15T00:13:02.133Z,0.72
2019-02-15T00:15:30.777Z,0.73
2019-02-15T00:17:59.435Z,0.72
2019-02-15T00:20:28.122Z,0.72
2019-02-15T00:22:56.770Z,0.73
2019-02-15T00:25:25.758Z,0.67
2019-02-15T00:27:54.422Z,0.61
2019-02-15T00:30:23.045Z,0.62
2019-02-15T00:32:51.693Z,0.57
2019-02-15T00:35:20.314Z,0.50
2019-02-15T00:37:48.950Z,0.59
2019-02-15T00:40:17.574Z,0.55
2019-02-15T00:42:46.219Z,0.59
2019-02-15T00:45:14.834Z,0.55
2019-02-15T00:47:43.493Z,0.43
2019-02-15T00:50:12.398Z,0.45
2019-02-15T00:52:41.058Z,0.40
2019-02-15T00:55:09.690Z,0.42
2019-02-15T00:57:38.647Z,0.42
2019-02-15T01:00:07.279Z,0.49
2019-02-15T01:02:35.922Z,0.50
2019-02-15T01:05:04.572Z,0.38
2019-02-15T01:07:33.242Z,0.39
2019-02-15T01:10:01.848Z,0.37
2019-02-15T01:12:30.503Z,0.42
2019-02-15T01:14:59.137Z,0.43
2019-02-15T01:17:27.830Z,0.44
2019-02-15T01:19:56.431Z,0.28
2019-02-15T01:22:25.063Z,0.27
2019-02-15T01:24:53.967Z,0.29
2019-02-15T01:27:22.613Z,0.27
2019-02-15T01:29:51.250Z,0.31
2019-02-15T01:32:19.892Z,0.31
2019-02-15T01:34:48.909Z,0.28
2019-02-15T01:37:17.542Z,0.23
2019-02-15T01:39:46.190Z,0.23
2019-02-15T01:42:14.815Z,0.21
2019-02-15T01:44:43.463Z,0.20
2019-02-15T01:47:12.423Z,0.16
2019-02-15T01:49:41.420Z,0.16
2019-02-15T01:52:10.051Z,0.04
2019-02-15T01:54:38.991Z,-0.04
2019-02-15T01:57:07.622Z,0.10
2019-02-15T01:59:36.565Z,0.12
2019-02-15T02:02:05.198Z,0.10
2019-02-15T02:04:34.168Z,0.06
2019-02-15T02:07:02.804Z,0.16
2019-02-15T02:09:31.469Z,0.08
2019-02-15T02:12:00.394Z,0.08
2019-02-15T02:14:29.279Z,0.07
2019-02-15T02:16:57.913Z,-0.11
2019-02-15T02:19:26.858Z,-0.12
2019-02-15T02:21:55.756Z,0.02
2019-02-15T02:24:24.406Z,0.03
2019-02-15T02:26:53.041Z,-0.04
2019-02-15T02:29:21.672Z,-0.06
2019-02-15T02:31:50.314Z,-0.09
2019-02-15T02:34:19.268Z,-0.07
2019-02-15T02:36:47.914Z,0.00
2019-02-15T02:39:16.538Z,0.01
2019-02-15T02:41:45.167Z,-0.02
2019-02-15T02:44:13.786Z,-0.13
2019-02-15T02:46:42.408Z,-0.17
2019-02-15T02:49:11.048Z,-0.16
2019-02-15T02:51:39.948Z,-0.10
2019-02-15T02:54:08.941Z,-0.16
2019-02-15T02:56:37.552Z,-0.08
2019-02-15T02:59:06.173Z,-0.09
2019-02-15T03:01:34.793Z,-0.08
2019-02-15T03:04:03.424Z,-0.17
2019-02-15T03:06:32.140Z,-0.26
2019-02-15T03:09:00.682Z,-0.25
2019-02-15T03:11:29.633Z,-0.27
2019-02-15T03:13:58.614Z,-0.31
2019-02-15T03:16:27.509Z,-0.20
2019-02-15T03:18:56.404Z,-0.29
2019-02-15T03:21:25.008Z,-0.24
2019-02-15T03:23:53.634Z,-0.25
2019-02-15T03:26:22.249Z,-0.35
2019-02-15T03:28:51.077Z,-0.32
2019-02-15T03:31:19.676Z,-0.28
2019-02-15T03:33:48.313Z,-0.25
2019-02-15T03:36:16.916Z,-0.20
2019-02-15T03:38:45.551Z,-0.24
2019-02-15T03:41:14.172Z,-0.27
2019-02-15T03:43:42.797Z,-0.30
2019-02-15T03:46:11.403Z,-0.31
2019-02-15T03:48:40.392Z,-0.30
2019-02-15T03:51:09.003Z,-0.37
2019-02-15T03:53:37.969Z,-0.34
2019-02-15T03:56:06.598Z,-0.44
2019-02-15T03:58:35.225Z,-0.47
2019-02-15T04:01:03.853Z,-0.45
2019-02-15T04:03:32.511Z,-0.41
2019-02-15T04:06:01.117Z,-0.38
2019-02-15T04:08:29.732Z,-0.41
2019-02-15T04:10:58.370Z,-0.44
2019-02-15T04:13:26.986Z,-0.45
2019-02-15T04:15:55.636Z,-0.45
2019-02-15T04:18:24.264Z,-0.47
2019-02-15T04:20:52.907Z,-0.43
2019-02-15T04:23:21.511Z,-0.45
2019-02-15T04:25:50.171Z,-0.49
2019-02-15T04:28:18.826Z,-0.56
2019-02-15T04:30:47.841Z,-0.57
2019-02-15T04:33:16.702Z,-0.54
2019-02-15T04:35:45.362Z,-0.59
2019-02-15T04:38:13.978Z,-0.60
2019-02-15T04:40:42.604Z,-0.61
2019-02-15T04:43:11.226Z,-0.64
2019-02-15T04:45:39.870Z,-0.57
2019-02-15T04:48:08.732Z,-0.58
2019-02-15T04:50:37.366Z,-0.59
2019-02-15T04:53:06.011Z,-0.63
2019-02-15T04:55:34.949Z,-0.62
2019-02-15T04:58:03.572Z,-0.59
2019-02-15T05:00:32.534Z,-0.58
2019-02-15T05:03:01.165Z,-0.57
2019-02-15T05:05:30.154Z,-0.61
2019-02-15T05:07:59.094Z,-0.61
2019-02-15T05:10:27.727Z,-0.62
2019-02-15T05:12:56.664Z,-0.67
2019-02-15T05:15:25.280Z,-0.67
2019-02-15T05:17:54.264Z,-0.68
2019-02-15T05:20:22.893Z,-0.69
2019-02-15T05:22:51.517Z,-0.70
2019-02-15T05:25:20.502Z,-0.67
2019-02-15T05:27:49.519Z,-0.63
2019-02-15T05:30:18.152Z,-0.67
2019-02-15T05:32:46.766Z,-0.69
2019-02-15T05:35:15.415Z,-0.69
2019-02-15T05:37:44.326Z,-0.69
2019-02-15T05:40:12.959Z,-0.72
2019-02-15T05:42:41.572Z,-0.76
2019-02-15T05:45:10.200Z,-0.75
2019-02-15T05:47:38.832Z,-0.81
2019-02-15T05:50:07.758Z,-0.80
2019-02-15T05:52:36.364Z,-0.86
2019-02-15T05:55:04.997Z,-0.80
2019-02-15T05:57:33.612Z,-0.85
2019-02-15T06:00:02.231Z,-0.83
2019-02-15T06:02:31.169Z,-0.86
2019-02-15T06:04:59.799Z,-0.89
2019-02-15T06:07:28.409Z,-0.92
2019-02-15T06:09:57.031Z,-0.87
2019-02-15T06:12:26.041Z,-0.84
2019-02-15T06:14:54.994Z,-0.87
2019-02-15T06:17:23.610Z,-0.89
2019-02-15T06:19:52.254Z,-0.89
2019-02-15T06:22:21.143Z,-0.90
2019-02-15T06:24:49.771Z,-0.91
2019-02-15T06:27:18.382Z,-0.92
2019-02-15T06:29:47.300Z,-0.99
2019-02-15T06:32:15.921Z,-0.96
2019-02-15T06:34:44.884Z,-0.95
2019-02-15T06:37:13.533Z,-0.91
2019-02-15T06:39:42.168Z,-0.94
2019-02-15T06:42:10.785Z,-0.92
2019-02-15T06:44:39.403Z,-0.93
2019-02-15T06:47:08.206Z,-0.92
2019-02-15T06:49:36.773Z,-0.91
2019-02-15T06:52:05.413Z,-0.89
2019-02-15T06:54:34.019Z,-0.89
2019-02-15T06:57:02.654Z,-0.87
2019-02-15T06:59:31.263Z,-0.88
2019-02-15T07:02:00.201Z,-0.85
2019-02-15T07:04:28.813Z,-0.89
2019-02-15T07:06:57.445Z,-0.85
2019-02-15T07:09:26.061Z,-0.85
2019-02-15T07:11:54.673Z,-0.82
2019-02-15T07:14:23.281Z,-0.83
2019-02-15T07:16:51.917Z,-0.79
2019-02-15T07:19:20.534Z,-0.78
2019-02-15T07:21:49.160Z,-0.74
2019-02-15T07:24:18.037Z,-0.70
2019-02-15T07:26:46.671Z,-0.68
2019-02-15T07:29:15.277Z,-0.69
2019-02-15T07:31:43.911Z,-0.64
2019-02-15T07:34:12.535Z,-0.64
2019-02-15T07:36:41.181Z,-0.60
2019-02-15T07:39:10.137Z,-0.56
2019-02-15T07:41:38.779Z,-0.49
2019-02-15T07:44:07.710Z,-0.45
2019-02-15T07:46:36.701Z,-0.37
2019-02-15T07:49:05.323Z,-0.32
2019-02-15T07:51:34.279Z,-0.28
2019-02-15T07:54:02.883Z,-0.22
2019-02-15T07:56:31.513Z,-0.15
2019-02-15T07:59:00.122Z,-0.04
2019-02-15T08:01:28.756Z,0.08
2019-02-15T08:03:57.367Z,0.20
2019-02-15T08:06:26.010Z,0.36
2019-02-15T08:08:54.615Z,0.56
2019-02-15T08:11:23.236Z,0.73
2019-02-15T08:13:52.226Z,0.92
2019-02-15T08:16:20.857Z,1.14
2019-02-15T08:18:49.798Z,1.34
2019-02-15T08:21:18.448Z,1.62
2019-02-15T08:23:47.080Z,1.76
2019-02-15T08:26:15.689Z,1.82
2019-02-15T08:28:44.305Z,2.02
2019-02-15T08:31:12.950Z,2.21
2019-02-15T08:33:41.557Z,2.35
2019-02-15T08:36:10.488Z,2.52
2019-02-15T08:38:39.099Z,2.63
2019-02-15T08:41:07.725Z,2.88
2019-02-15T08:43:36.346Z,3.05
2019-02-15T08:46:04.981Z,3.17
2019-02-15T08:48:33.592Z,3.42
2019-02-15T08:51:02.208Z,3.56
2019-02-15T08:53:30.819Z,3.79
2019-02-15T08:55:59.439Z,4.08
2019-02-15T08:58:28.047Z,4.23
2019-02-15T09:00:56.656Z,4.34
2019-02-15T09:03:25.283Z,4.40
2019-02-15T09:05:53.962Z,4.51
2019-02-15T09:08:22.514Z,4.63
2019-02-15T09:10:51.115Z,4.70
2019-02-15T09:13:19.776Z,4.85
2019-02-15T09:15:48.381Z,5.01
2019-02-15T09:18:17.015Z,5.04
2019-02-15T09:20:45.972Z,5.08
2019-02-15T09:23:14.606Z,5.16
2019-02-15T09:25:43.552Z,5.34
2019-02-15T09:28:12.208Z,5.44
2019-02-15T09:30:40.823Z,5.58
2019-02-15T09:33:09.448Z,5.72
2019-02-15T09:35:38.076Z,5.86
2019-02-15T09:38:06.719Z,5.99
2019-02-15T09:40:35.393Z,6.12
2019-02-15T09:43:04.333Z,6.42
2019-02-15T09:45:33.104Z,6.46
2019-02-15T09:48:01.577Z,6.53
2019-02-15T09:50:30.206Z,6.51
2019-02-15T09:52:58.854Z,6.59
2019-02-15T09:55:27.449Z,6.71
2019-02-15T09:57:56.087Z,6.79
2019-02-15T10:00:24.713Z,6.88
2019-02-15T10:02:53.341Z,7.02
2019-02-15T10:05:21.952Z,7.09
2019-02-15T10:07:50.582Z,7.15
2019-02-15T10:10:19.204Z,7.23
2019-02-15T10:12:48.024Z,7.25
2019-02-15T10:15:16.460Z,7.45
2019-02-15T10:17:45.096Z,7.58
2019-02-15T10:20:14.084Z,7.58
2019-02-15T10:22:43.073Z,7.69
2019-02-15T10:25:11.707Z,7.76
2019-02-15T10:27:40.347Z,7.76
2019-02-15T10:30:11.901Z,7.82
2019-02-15T10:32:40.549Z,7.89
2019-02-15T10:35:09.203Z,7.89
2019-02-15T10:37:37.864Z,8.07
2019-02-15T10:42:44.591Z,8.12
2019-02-15T10:45:16.402Z,8.19
2019-02-15T10:47:45.075Z,8.24
2019-02-15T10:50:13.691Z,8.29
2019-02-15T10:52:42.325Z,8.33
2019-02-15T10:55:11.317Z,8.41
2019-02-15T10:57:39.961Z,8.47
2019-02-15T11:00:08.895Z,8.47
2019-02-15T11:02:37.558Z,8.44
2019-02-15T11:05:06.184Z,8.54
2019-02-15T11:07:34.827Z,8.51
2019-02-15T11:10:03.466Z,8.52
2019-02-15T11:12:32.421Z,8.55
2019-02-15T11:15:01.060Z,8.65
2019-02-15T11:17:29.691Z,8.74
2019-02-15T11:19:58.364Z,8.76
2019-02-15T11:22:27.013Z,8.74
2019-02-15T11:24:55.942Z,8.83
2019-02-15T11:27:24.932Z,8.89
2019-02-15T11:29:53.539Z,8.86
2019-02-15T11:32:22.281Z,8.91
2019-02-15T11:34:50.914Z,8.96
2019-02-15T11:37:19.549Z,8.97
2019-02-15T11:39:48.170Z,9.03
2019-02-15T11:42:16.820Z,9.08
2019-02-15T11:44:45.437Z,9.14
2019-02-15T11:47:14.416Z,9.07
2019-02-15T11:49:43.395Z,9.02
2019-02-15T11:52:12.039Z,9.18
2019-02-15T11:54:40.650Z,9.29
2019-02-15T11:57:09.283Z,9.17
2019-02-15T11:59:37.927Z,9.06
2019-02-15T12:02:06.934Z,9.07
2019-02-15T12:04:35.561Z,9.04
2019-02-15T12:07:04.183Z,9.20
2019-02-15T12:09:32.807Z,9.26
2019-02-15T12:12:10.117Z,9.30
2019-02-15T12:14:30.389Z,9.39
2019-02-15T12:17:05.513Z,9.48
2019-02-15T12:19:27.643Z,9.48
2019-02-15T12:21:56.254Z,9.47
2019-02-15T12:24:24.877Z,9.58
2019-02-15T12:26:53.859Z,9.65
2019-02-15T12:29:22.745Z,9.65
2019-02-15T12:31:51.366Z,9.73
2019-02-15T12:34:19.993Z,9.73
2019-02-15T12:36:48.622Z,9.79
2019-02-15T12:39:17.264Z,9.73
2019-02-15T12:41:45.898Z,9.76
2019-02-15T12:44:14.521Z,9.74
2019-02-15T12:46:43.126Z,9.90
2019-02-15T12:49:11.761Z,10.06
2019-02-15T12:51:40.394Z,10.05
2019-02-15T12:54:09.383Z,10.02
2019-02-15T12:56:37.990Z,9.97
2019-02-15T12:59:06.624Z,10.06
2019-02-15T13:01:35.534Z,10.22
2019-02-15T13:04:04.527Z,10.17
2019-02-15T13:06:33.142Z,10.19
2019-02-15T13:09:01.770Z,10.24
2019-02-15T13:11:30.418Z,10.29
2019-02-15T13:13:59.044Z,10.28
2019-02-15T13:16:27.943Z,10.22
2019-02-15T13:18:57.064Z,10.33
2019-02-15T13:21:25.188Z,10.41
2019-02-15T13:23:53.819Z,10.39
2019-02-15T13:26:22.539Z,10.44
2019-02-15T13:28:51.077Z,10.45
2019-02-15T13:31:20.046Z,10.41
2019-02-15T13:33:48.679Z,10.45
2019-02-15T13:36:17.331Z,10.50
2019-02-15T13:38:45.967Z,10.49
2019-02-15T13:41:14.579Z,10.64
2019-02-15T13:43:43.574Z,10.71
2019-02-15T13:46:12.183Z,10.74
2019-02-15T13:48:40.818Z,10.61
2019-02-15T13:51:09.436Z,10.39
2019-02-15T13:53:38.434Z,10.54
2019-02-15T13:56:07.052Z,10.60
2019-02-15T13:58:35.679Z,10.57
2019-02-15T14:01:04.298Z,10.52
2019-02-15T14:03:32.949Z,10.43
2019-02-15T14:06:01.831Z,10.56
2019-02-15T14:08:30.818Z,10.71
2019-02-15T14:10:59.705Z,10.64
2019-02-15T14:13:28.326Z,10.73
2019-02-15T14:15:56.984Z,10.71
2019-02-15T14:18:25.621Z,10.78
2019-02-15T14:20:54.240Z,10.68
2019-02-15T14:23:22.854Z,10.71
2019-02-15T14:25:51.467Z,10.84
2019-02-15T14:28:20.093Z,10.85
2019-02-15T14:30:48.718Z,10.92
2019-02-15T14:33:17.340Z,10.95
2019-02-15T14:35:46.001Z,11.04
2019-02-15T14:38:14.600Z,10.98
2019-02-15T14:40:43.229Z,11.02
2019-02-15T14:43:11.849Z,11.02
2019-02-15T14:45:40.778Z,10.91
2019-02-15T14:48:09.385Z,10.87
2019-02-15T14:50:38.343Z,10.84
2019-02-15T14:53:06.944Z,10.92
2019-02-15T14:55:35.578Z,10.96
2019-02-15T14:58:04.210Z,10.87
2019-02-15T15:00:32.841Z,10.86
2019-02-15T15:03:01.765Z,10.88
2019-02-15T15:05:30.654Z,10.77
2019-02-15T15:07:59.562Z,10.71
2019-02-15T15:10:28.190Z,10.66
2019-02-15T15:12:56.791Z,10.70
2019-02-15T15:15:25.718Z,10.74
2019-02-15T15:18:02.310Z,10.58
2019-02-15T15:20:22.970Z,10.58
2019-02-15T15:22:51.597Z,10.65
2019-02-15T15:25:20.538Z,10.64
2019-02-15T15:27:49.146Z,10.64
2019-02-15T15:30:18.108Z,10.65
2019-02-15T15:32:46.721Z,10.57
2019-02-15T15:35:15.350Z,10.58
2019-02-15T15:37:44.262Z,10.43
2019-02-15T15:40:15.905Z,10.38
2019-02-15T15:42:44.805Z,10.39
2019-02-15T15:45:13.450Z,10.48
2019-02-15T15:47:42.377Z,10.14
2019-02-15T15:50:11.367Z,9.80
2019-02-15T15:52:40.255Z,9.56
2019-02-15T15:55:08.892Z,9.17
2019-02-15T15:57:37.511Z,8.86
2019-02-15T16:00:14.967Z,8.54
2019-02-15T16:02:43.897Z,8.19
2019-02-15T16:05:12.533Z,7.95
2019-02-15T16:07:43.416Z,7.88
2019-02-15T16:10:10.159Z,7.72
2019-02-15T16:12:38.766Z,7.40
2019-02-15T16:15:07.414Z,7.39
2019-02-15T16:17:36.035Z,7.22
2019-02-15T16:20:04.689Z,7.01
2019-02-15T16:22:33.301Z,6.90
2019-02-15T16:25:01.938Z,6.81
2019-02-15T16:27:30.546Z,6.72
2019-02-15T16:29:59.164Z,6.56
2019-02-15T16:32:27.776Z,6.45
2019-02-15T16:34:56.396Z,6.34
2019-02-15T16:37:25.068Z,6.24
2019-02-15T16:39:53.691Z,6.12
2019-02-15T16:42:22.313Z,6.02
2019-02-15T16:44:50.929Z,6.03
2019-02-15T16:47:19.544Z,5.95
2019-02-15T16:49:48.159Z,5.80
2019-02-15T16:52:17.272Z,5.72
2019-02-15T16:54:45.900Z,5.69
2019-02-15T16:57:14.522Z,5.62
2019-02-15T16:59:43.174Z,5.60
2019-02-15T17:02:11.795Z,5.51
2019-02-15T17:04:40.801Z,5.50
2019-02-15T17:07:09.445Z,5.38
2019-02-15T17:09:38.077Z,5.28
2019-02-15T17:12:06.700Z,5.19
2019-02-15T17:14:35.635Z,5.25
2019-02-15T17:17:04.286Z,5.18
2019-02-15T17:19:33.208Z,5.04
2019-02-15T17:22:01.894Z,5.02
2019-02-15T17:24:30.495Z,5.06
2019-02-15T17:26:59.565Z,4.95
2019-02-15T17:29:28.454Z,4.94
2019-02-15T17:31:57.091Z,4.97
2019-02-15T17:34:25.698Z,4.90
2019-02-15T17:36:54.335Z,4.87
2019-02-15T17:39:23.287Z,4.74
2019-02-15T17:41:51.932Z,4.72
2019-02-15T17:44:20.559Z,4.70
2019-02-15T17:46:49.205Z,4.66
2019-02-15T17:49:18.128Z,4.61
2019-02-15T17:51:46.766Z,4.58
2019-02-15T17:54:15.376Z,4.53
2019-02-15T17:56:44.009Z,4.50
2019-02-15T17:59:12.645Z,4.46
2019-02-15T18:01:41.277Z,4.46
2019-02-15T18:04:09.902Z,4.40
2019-02-15T18:06:38.564Z,4.31
2019-02-15T18:09:07.199Z,4.25
2019-02-15T18:11:36.395Z,4.24
2019-02-15T18:14:05.013Z,4.17
2019-02-15T18:16:33.738Z,4.17
2019-02-15T18:19:09.854Z,4.14
2019-02-15T18:21:31.291Z,4.05
2019-02-15T18:23:59.917Z,3.91
2019-02-15T18:26:28.919Z,3.91
2019-02-15T18:28:57.531Z,3.92
2019-02-15T18:31:26.214Z,3.95
2019-02-15T18:33:55.158Z,3.89
2019-02-15T18:36:24.148Z,3.85
2019-02-15T18:38:52.780Z,3.85
2019-02-15T18:41:21.414Z,3.75
2019-02-15T18:43:50.023Z,3.76
2019-02-15T18:46:18.687Z,3.76
2019-02-15T18:48:47.305Z,3.80
2019-02-15T18:51:15.967Z,3.78
2019-02-15T18:53:44.937Z,3.61
2019-02-15T18:56:13.951Z,3.61
2019-02-15T18:58:42.576Z,3.47
2019-02-15T19:01:11.209Z,3.47
2019-02-15T19:03:39.834Z,3.42
2019-02-15T19:06:08.488Z,3.41
2019-02-15T19:08:37.112Z,3.33
2019-02-15T19:11:06.026Z,3.40
2019-02-15T19:13:34.947Z,3.40
2019-02-15T19:16:03.578Z,3.26
2019-02-15T19:18:32.352Z,3.18
2019-02-15T19:21:01.175Z,3.14
2019-02-15T19:23:29.812Z,3.23
2019-02-15T19:25:58.442Z,3.23
2019-02-15T19:28:27.332Z,3.14
2019-02-15T19:30:55.970Z,3.08
2019-02-15T19:33:24.605Z,3.09
2019-02-15T19:35:53.239Z,3.05
2019-02-15T19:38:21.864Z,3.06
2019-02-15T19:40:50.477Z,3.04
2019-02-15T19:43:19.112Z,2.93
2019-02-15T19:45:47.740Z,2.87
2019-02-15T19:48:16.373Z,2.82
2019-02-15T19:50:44.974Z,2.79
2019-02-15T19:53:13.597Z,2.79
2019-02-15T19:55:42.227Z,2.90
2019-02-15T19:58:10.834Z,2.80
2019-02-15T20:00:39.462Z,2.76
2019-02-15T20:03:08.094Z,2.87
2019-02-15T20:05:36.709Z,2.67
2019-02-15T20:08:05.356Z,2.66
2019-02-15T20:10:33.963Z,2.63
2019-02-15T20:13:02.591Z,2.62
2019-02-15T20:15:31.199Z,2.51
2019-02-15T20:17:59.823Z,2.44
2019-02-15T20:20:28.448Z,2.44
2019-02-15T20:22:57.081Z,2.41
2019-02-15T20:25:26.042Z,2.32
2019-02-15T20:27:55.031Z,2.34
2019-02-15T20:30:23.654Z,2.39
2019-02-15T20:32:52.304Z,2.30
2019-02-15T20:35:20.930Z,2.27
2019-02-15T20:37:49.561Z,2.33
2019-02-15T20:40:18.451Z,2.24
2019-02-15T20:42:47.447Z,2.23
2019-02-15T20:45:18.790Z,2.18
2019-02-15T20:47:47.416Z,2.15
2019-02-15T20:50:16.041Z,2.32
2019-02-15T20:52:44.675Z,2.73
2019-02-15T20:55:13.627Z,3.09
2019-02-15T20:57:42.529Z,3.44
2019-02-15T21:00:17.180Z,3.87
2019-02-15T21:02:45.819Z,4.01
2019-02-15T21:05:14.451Z,4.02
2019-02-15T21:07:43.086Z,4.25
2019-02-15T21:10:11.710Z,4.41
2019-02-15T21:12:40.382Z,4.38
2019-02-15T21:15:11.843Z,4.22
2019-02-15T21:17:40.473Z,3.99
2019-02-15T21:20:12.091Z,3.93
2019-02-15T21:22:41.018Z,3.98
2019-02-15T21:25:12.426Z,4.07
2019-02-15T21:27:41.363Z,3.91
2019-02-15T21:30:19.310Z,3.78
2019-02-15T21:32:48.256Z,3.70
2019-02-15T21:35:17.294Z,3.73
2019-02-15T21:37:45.928Z,3.70
2019-02-15T21:40:17.549Z,3.56
2019-02-15T21:42:46.174Z,3.49
2019-02-15T21:45:14.802Z,3.43
2019-02-15T21:47:43.441Z,3.35
2019-02-15T21:50:17.014Z,3.27
2019-02-15T21:52:44.194Z,3.31
2019-02-15T21:55:09.714Z,3.25
2019-02-15T21:57:38.348Z,3.22
2019-02-15T22:00:13.154Z,3.25
2019-02-15T22:02:41.798Z,3.30
2019-02-15T22:05:10.425Z,3.22
2019-02-15T22:07:39.044Z,3.03
2019-02-15T22:10:07.695Z,2.96
2019-02-15T22:12:36.301Z,2.89
2019-02-15T22:15:04.945Z,3.32
2019-02-15T22:17:33.562Z,3.19
2019-02-15T22:20:02.198Z,2.89
2019-02-15T22:22:30.802Z,2.84
2019-02-15T22:24:59.412Z,2.77
2019-02-15T22:27:28.026Z,2.80
2019-02-15T22:29:56.652Z,2.79
2019-02-15T22:32:25.261Z,2.67
2019-02-15T22:34:53.880Z,2.75
2019-02-15T22:37:22.512Z,2.83
2019-02-15T22:39:51.132Z,2.87
2019-02-15T22:42:19.747Z,2.89
2019-02-15T22:44:48.381Z,2.82
2019-02-15T22:47:17.003Z,2.73
2019-02-15T22:49:45.983Z,2.78
2019-02-15T22:52:14.591Z,2.73
2019-02-15T22:54:43.220Z,2.74
2019-02-15T22:57:11.851Z,2.67
2019-02-15T22:59:40.815Z,2.62
2019-02-15T23:02:09.429Z,2.62
2019-02-15T23:04:38.361Z,2.52
2019-02-15T23:07:06.977Z,2.47
2019-02-15T23:09:35.612Z,2.34
2019-02-15T23:12:04.226Z,2.33
2019-02-15T23:14:32.859Z,2.43
2019-02-15T23:17:01.481Z,2.37
2019-02-15T23:19:30.109Z,2.25
2019-02-15T23:21:58.739Z,2.15
2019-02-15T23:24:27.369Z,2.15
2019-02-15T23:26:55.975Z,2.02
2019-02-15T23:29:24.891Z,2.08
2019-02-15T23:31:53.498Z,2.08
2019-02-15T23:34:22.467Z,1.99
2019-02-15T23:36:51.095Z,1.95
2019-02-15T23:39:19.714Z,2.07
2019-02-15T23:41:48.623Z,2.07
2019-02-15T23:44:17.615Z,1.95
2019-02-15T23:46:46.226Z,1.90
2019-02-15T23:49:14.859Z,1.94
2019-02-15T23:51:43.475Z,1.87
2019-02-15T23:54:12.095Z,1.83
2019-02-15T23:56:40.719Z,1.75
2019-02-15T23:59:09.364Z,1.73
